Terminal Aerodrome Forecast
Issued by NWS

Home | Current Version | Previous Version | Graphics & Text | Print | Product List | Glossary On
Versions: 1 2 3 4 5 6 7 8 9 10 11 12 13
000
FTUS43 KGRB 271700
TAFATW
TAF
KATW 271720Z 2718/2818 02010G17KT P6SM FEW060
     FM280100 07007KT P6SM SKC
     FM280800 33004KT P6SM SKC
     FM281500 01008KT P6SM SKC=

USA.gov is the U.S. government's official web portal to all federal, state and local government web resources and services.